Time;durP1;ratioP1;P1;durP2;ratioP2;P2;SDS_P1;SDS_P2;PMS_P1;PMS_P2;Temp;Humidity;BMP_temperature;BMP_pressure;BME280_temperature;BME280_humidity;BME280_pressure;Samples;Min_cycle;Max_cycle;Signal;HPM_P1;HPM_P2
2022/03/24 00:02:14;;;;;;;61.10;45.57;;;;;;;3.02;83.93;103141.94;5071380;28;20494;-47
2022/03/24 00:04:42;;;;;;;57.43;43.10;;;;;;;2.97;83.86;103139.56;5071574;28;20476;-45
2022/03/24 00:07:10;;;;;;;61.87;48.70;;;;;;;2.93;84.43;103139.84;5071156;28;20925;-44
2022/03/24 00:09:37;;;;;;;59.90;46.77;;;;;;;2.92;84.19;103139.00;5071621;28;20429;-46
2022/03/24 00:12:06;;;;;;;67.73;50.87;;;;;;;2.88;84.36;103139.25;5071714;28;20458;-46
2022/03/24 00:14:35;;;;;;;63.90;45.07;;;;;;;2.81;84.69;103146.66;5071505;28;20517;-47
2022/03/24 00:17:02;;;;;;;58.80;45.63;;;;;;;2.75;84.54;103144.38;5071189;28;20466;-45
2022/03/24 00:19:30;;;;;;;66.27;47.83;;;;;;;2.70;84.84;103141.16;5071580;28;20971;-49
2022/03/24 00:21:58;;;;;;;63.20;44.63;;;;;;;2.66;85.19;103132.56;5071142;28;20451;-47
2022/03/24 00:24:26;;;;;;;64.80;45.17;;;;;;;2.60;85.12;103127.66;5071653;28;20434;-45
2022/03/24 00:26:54;;;;;;;69.13;48.67;;;;;;;2.59;85.82;103130.38;5072403;28;20503;-46
2022/03/24 00:29:21;;;;;;;66.00;49.33;;;;;;;2.57;85.68;103132.28;5075691;28;20434;-43
2022/03/24 00:31:50;;;;;;;68.20;48.40;;;;;;;2.56;85.72;103130.56;5075345;28;21006;-44
2022/03/24 00:34:18;;;;;;;55.77;45.47;;;;;;;2.55;86.02;103132.34;5075597;28;20529;-45
2022/03/24 00:36:46;;;;;;;59.93;47.07;;;;;;;2.57;86.27;103132.28;5075053;28;20553;-47
2022/03/24 00:39:13;;;;;;;58.13;46.03;;;;;;;2.55;86.14;103129.72;5075575;28;20434;-45
2022/03/24 00:41:42;;;;;;;66.53;45.73;;;;;;;2.56;86.29;103127.94;5075083;28;20466;-45
2022/03/24 00:44:10;;;;;;;60.20;47.10;;;;;;;2.59;86.39;103125.97;5074542;28;20444;-43
2022/03/24 00:46:38;;;;;;;66.83;48.83;;;;;;;2.60;86.72;103129.44;5062869;28;20469;-48
2022/03/24 00:49:07;;;;;;;73.53;48.77;;;;;;;2.58;86.56;103128.69;5073538;28;20517;-44
2022/03/24 00:51:34;;;;;;;63.10;46.63;;;;;;;2.53;86.69;103122.84;5075034;28;20464;-46
2022/03/24 00:54:03;;;;;;;60.90;46.97;;;;;;;2.48;86.57;103123.06;5075380;28;20868;-43
2022/03/24 00:56:30;;;;;;;60.30;44.03;;;;;;;2.42;86.80;103118.16;5074618;28;20473;-43
2022/03/24 00:58:58;;;;;;;65.10;49.40;;;;;;;2.37;87.26;103116.72;5074929;28;20948;-46
2022/03/24 01:01:26;;;;;;;69.60;47.73;;;;;;;2.34;87.36;103117.75;5074517;28;20490;-42
2022/03/24 01:03:53;;;;;;;63.80;46.93;;;;;;;2.33;87.97;103113.41;5074833;28;20430;-43
2022/03/24 01:06:26;;;;;;;68.53;47.73;;;;;;;2.32;87.84;103109.09;5074516;28;20847;-44
2022/03/24 01:08:54;;;;;;;61.83;48.37;;;;;;;2.29;87.99;103105.78;5074917;28;20799;-46
2022/03/24 01:11:21;;;;;;;71.87;50.97;;;;;;;2.25;88.22;103113.00;5074469;28;20460;-45
2022/03/24 01:13:49;;;;;;;74.80;51.70;;;;;;;2.25;88.95;103105.09;5074606;28;20436;-44
2022/03/24 01:16:21;;;;;;;72.37;49.80;;;;;;;2.24;89.27;103108.66;5074210;28;20500;-43
2022/03/24 01:18:48;;;;;;;72.57;50.87;;;;;;;2.21;89.01;103111.47;5074725;28;20437;-43
2022/03/24 01:21:16;;;;;;;73.90;52.37;;;;;;;2.20;89.60;103097.47;5074392;28;20465;-46
2022/03/24 01:23:45;;;;;;;64.97;49.07;;;;;;;2.19;90.18;103103.66;5074747;28;20430;-43
2022/03/24 01:26:15;;;;;;;73.97;52.70;;;;;;;2.19;90.05;103098.38;5074064;28;20553;-45
2022/03/24 01:28:43;;;;;;;75.60;52.03;;;;;;;2.20;90.16;103091.34;5074588;28;20430;-47
2022/03/24 01:31:11;;;;;;;62.73;48.40;;;;;;;2.21;90.33;103106.22;5074208;28;20824;-44
2022/03/24 01:33:40;;;;;;;69.07;48.53;;;;;;;2.22;90.17;103097.38;5074468;28;20533;-45
2022/03/24 01:36:08;;;;;;;66.50;51.73;;;;;;;2.23;91.05;103093.81;5073917;28;20486;-45
2022/03/24 01:38:37;;;;;;;73.40;51.90;;;;;;;2.27;90.68;103108.47;5073901;28;20895;-44
2022/03/24 01:41:07;;;;;;;74.40;53.73;;;;;;;2.30;91.02;103091.69;5073773;28;20845;-43
2022/03/24 01:43:35;;;;;;;76.13;52.40;;;;;;;2.33;91.49;103089.69;5074432;28;20526;-43
2022/03/24 01:46:03;;;;;;;77.50;52.23;;;;;;;2.36;91.61;103086.06;5065658;28;20513;-43
2022/03/24 01:48:31;;;;;;;78.20;52.63;;;;;;;2.39;91.99;103085.91;5067641;28;20509;-43
2022/03/24 01:50:59;;;;;;;70.03;52.40;;;;;;;2.39;91.78;103086.72;5073696;28;21147;-45
2022/03/24 01:53:27;;;;;;;73.57;50.33;;;;;;;2.40;91.70;103077.91;5074070;28;20435;-44
2022/03/24 01:55:55;;;;;;;78.73;54.40;;;;;;;2.38;91.77;103077.16;5073535;28;20462;-45
2022/03/24 01:58:24;;;;;;;73.40;52.03;;;;;;;2.37;91.93;103077.22;5074087;28;20430;-45
2022/03/24 02:00:52;;;;;;;76.70;54.20;;;;;;;2.36;92.05;103078.19;5073654;28;20446;-43
2022/03/24 02:03:22;;;;;;;74.13;53.17;;;;;;;2.34;92.12;103072.97;5073849;28;20434;-43
2022/03/24 02:05:50;;;;;;;80.83;55.00;;;;;;;2.34;92.14;103070.34;5073312;28;20504;-46
2022/03/24 02:08:18;;;;;;;72.37;53.20;;;;;;;2.35;92.13;103068.56;5073749;28;20430;-46
2022/03/24 02:10:45;;;;;;;72.70;52.47;;;;;;;2.34;92.08;103065.09;5073797;28;20996;-42
2022/03/24 02:13:13;;;;;;;82.03;56.10;;;;;;;2.32;92.23;103068.75;5074407;28;20434;-45
2022/03/24 02:15:42;;;;;;;63.70;49.37;;;;;;;2.29;92.39;103059.25;5073694;28;20427;-47
2022/03/24 02:18:12;;;;;;;73.90;50.87;;;;;;;2.30;92.45;103060.09;5073178;28;20993;-44
2022/03/24 02:20:40;;;;;;;84.73;59.17;;;;;;;2.29;92.47;103053.97;5073226;28;20809;-46
2022/03/24 02:23:10;;;;;;;73.00;54.07;;;;;;;2.22;92.35;103057.88;5073685;28;20495;-46
2022/03/24 02:25:40;;;;;;;77.73;54.67;;;;;;;2.19;92.66;103060.69;5073592;28;20478;-49
2022/03/24 02:28:07;;;;;;;77.87;53.33;;;;;;;2.13;93.16;103059.25;5072928;28;20472;-48
2022/03/24 02:30:35;;;;;;;74.30;52.53;;;;;;;2.11;92.99;103055.00;5073050;28;20553;-47
2022/03/24 02:33:03;;;;;;;70.77;51.63;;;;;;;2.06;93.27;103060.50;5073102;28;20533;-45
2022/03/24 02:35:30;;;;;;;70.90;51.83;;;;;;;2.01;93.14;103057.28;5073326;28;20437;-46
2022/03/24 02:37:58;;;;;;;75.43;53.10;;;;;;;1.96;93.07;103054.06;5072775;28;20473;-46
2022/03/24 02:40:27;;;;;;;72.10;49.20;;;;;;;1.91;93.46;103056.09;5072874;28;20437;-48
2022/03/24 02:42:55;;;;;;;79.10;53.97;;;;;;;1.87;93.85;103056.34;5073367;28;20525;-45
2022/03/24 02:45:23;;;;;;;76.83;52.67;;;;;;;1.82;93.57;103051.38;5066629;28;20431;-43
2022/03/24 02:47:50;;;;;;;77.30;50.67;;;;;;;1.80;94.09;103062.88;5063893;28;20473;-45
2022/03/24 02:50:18;;;;;;;59.10;47.50;;;;;;;1.77;93.54;103052.53;5072015;28;20430;-49
2022/03/24 02:52:45;;;;;;;78.40;50.40;;;;;;;1.75;93.96;103051.78;5073227;28;20444;-46
2022/03/24 02:55:13;;;;;;;76.37;52.33;;;;;;;1.73;93.65;103051.88;5057238;28;20451;-44
2022/03/24 02:57:42;;;;;;;79.53;53.67;;;;;;;1.73;93.44;103046.59;5049701;28;20842;-44
2022/03/24 03:00:10;;;;;;;72.53;51.70;;;;;;;1.73;94.31;103043.97;5050412;28;20441;-47
2022/03/24 03:02:39;;;;;;;80.53;55.37;;;;;;;1.76;94.01;103046.44;5052837;28;20822;-45
2022/03/24 03:05:08;;;;;;;80.90;51.17;;;;;;;1.75;94.28;103044.72;5052779;28;20876;-44
2022/03/24 03:07:35;;;;;;;89.07;55.50;;;;;;;1.78;94.58;103043.72;5051991;28;20486;-45
2022/03/24 03:10:04;;;;;;;82.20;56.97;;;;;;;1.77;94.67;103047.25;5052641;28;20441;-45
2022/03/24 03:12:31;;;;;;;82.07;53.20;;;;;;;1.74;93.88;103043.03;5052316;28;20459;-43
2022/03/24 03:15:00;;;;;;;79.63;52.30;;;;;;;1.69;94.47;103042.44;5052563;28;20442;-45
2022/03/24 03:17:28;;;;;;;70.03;51.10;;;;;;;1.67;94.61;103046.94;5052712;28;20467;-45
2022/03/24 03:19:56;;;;;;;68.57;50.90;;;;;;;1.64;94.35;103045.28;5052676;28;20926;-46
2022/03/24 03:22:24;;;;;;;69.87;51.70;;;;;;;1.63;94.20;103050.66;5052552;28;20830;-46
2022/03/24 03:24:51;;;;;;;71.10;49.37;;;;;;;1.62;94.86;103046.31;5052942;28;20431;-44
2022/03/24 03:27:19;;;;;;;78.20;53.47;;;;;;;1.63;94.56;103050.66;5051956;28;20475;-47
2022/03/24 03:29:47;;;;;;;80.40;52.93;;;;;;;1.64;94.83;103053.19;5052715;28;20438;-43
2022/03/24 03:32:16;;;;;;;69.60;52.50;;;;;;;1.65;95.34;103047.00;5077120;22;20497;-48
2022/03/24 03:34:44;;;;;;;75.83;54.17;;;;;;;1.70;94.96;103049.41;5059282;28;20437;-45
2022/03/24 03:37:12;;;;;;;84.47;51.97;;;;;;;1.74;95.27;103050.06;5052073;28;20543;-46
2022/03/24 03:39:40;;;;;;;76.37;51.43;;;;;;;1.78;95.17;103048.97;5051986;28;20431;-47
2022/03/24 03:42:08;;;;;;;74.17;51.80;;;;;;;1.81;95.37;103049.66;5051855;28;20538;-47
2022/03/24 03:44:36;;;;;;;73.77;51.80;;;;;;;1.86;95.33;103044.13;5047847;28;20451;-46
2022/03/24 03:47:05;;;;;;;77.07;53.33;;;;;;;1.89;95.55;103049.22;5049404;28;20567;-51
2022/03/24 03:49:35;;;;;;;85.37;55.13;;;;;;;1.96;96.22;103047.97;5051978;28;20526;-47
2022/03/24 03:52:22;;;;;;;69.07;48.80;;;;;;;2.03;95.92;103051.97;5051581;28;20464;-47
2022/03/24 03:54:50;;;;;;;78.20;52.27;;;;;;;2.08;95.97;103052.53;5051745;28;20431;-47
2022/03/24 03:57:17;;;;;;;84.53;55.80;;;;;;;2.13;95.84;103053.13;5051459;28;20498;-47
2022/03/24 03:59:45;;;;;;;84.63;53.33;;;;;;;2.17;96.24;103054.66;5051849;28;20430;-47
2022/03/24 04:02:13;;;;;;;79.00;54.17;;;;;;;2.23;96.02;103051.69;5051351;28;20542;-46
2022/03/24 04:04:42;;;;;;;78.77;56.40;;;;;;;2.29;96.45;103048.72;5051528;28;20445;-49
2022/03/24 04:07:10;;;;;;;76.50;54.30;;;;;;;2.35;96.37;103051.00;5051240;28;20562;-47
2022/03/24 04:09:37;;;;;;;79.27;60.13;;;;;;;2.41;96.23;103053.28;5051782;28;20518;-50
2022/03/24 04:12:06;;;;;;;79.77;57.60;;;;;;;2.49;96.16;103058.09;5051447;28;20863;-50
2022/03/24 04:14:34;;;;;;;78.30;54.83;;;;;;;2.54;96.53;103048.97;5051650;28;20802;-53
2022/03/24 04:17:01;;;;;;;79.83;54.13;;;;;;;2.61;96.27;103052.13;5051221;28;20485;-50
2022/03/24 04:19:29;;;;;;;74.90;55.33;;;;;;;2.67;96.61;103052.63;5051555;28;20794;-46
2022/03/24 04:21:58;;;;;;;75.70;55.57;;;;;;;2.74;96.42;103051.34;5051407;28;20563;-47
2022/03/24 04:24:26;;;;;;;80.07;55.50;;;;;;;2.81;96.01;103053.59;5051492;28;20528;-51
2022/03/24 04:26:56;;;;;;;86.23;56.43;;;;;;;2.88;96.38;103049.66;5051106;28;20497;-45
2022/03/24 04:29:23;;;;;;;73.53;50.67;;;;;;;2.95;96.45;103056.25;5051417;28;20510;-48
2022/03/24 04:31:51;;;;;;;74.17;52.80;;;;;;;3.03;96.05;103054.00;5050825;28;20522;-44
2022/03/24 04:34:19;;;;;;;78.10;56.33;;;;;;;3.09;96.12;103046.59;5051610;28;20530;-53
2022/03/24 04:36:47;;;;;;;79.53;56.93;;;;;;;3.14;96.46;103051.56;5051079;28;20469;-51
2022/03/24 04:39:17;;;;;;;77.63;56.23;;;;;;;3.17;96.09;103051.38;5051281;28;20529;-50
2022/03/24 04:41:45;;;;;;;87.83;58.30;;;;;;;3.22;96.36;103046.72;5051038;28;20542;-48
2022/03/24 04:44:13;;;;;;;84.33;55.07;;;;;;;3.25;96.28;103047.38;5051298;28;20435;-47
2022/03/24 04:46:40;;;;;;;80.77;55.87;;;;;;;3.32;96.10;103045.19;5047385;28;20486;-48
2022/03/24 04:49:09;;;;;;;81.03;56.40;;;;;;;3.37;96.50;103044.91;5051262;28;20463;-50
2022/03/24 04:51:36;;;;;;;83.10;56.43;;;;;;;3.41;96.11;103047.25;5049624;28;20455;-49
2022/03/24 04:54:04;;;;;;;83.80;58.13;;;;;;;3.43;96.22;103040.13;5051193;28;20509;-49
2022/03/24 04:56:33;;;;;;;77.20;53.77;;;;;;;3.44;96.12;103043.56;5050945;28;20467;-46
2022/03/24 04:59:01;;;;;;;84.00;60.57;;;;;;;3.48;96.38;103047.72;5050957;28;20434;-50
2022/03/24 05:01:29;;;;;;;81.40;56.90;;;;;;;3.53;96.17;103029.81;5050970;28;20490;-52
2022/03/24 05:03:57;;;;;;;84.67;62.30;;;;;;;3.59;96.54;103035.56;5051187;28;20526;-50
2022/03/24 05:06:24;;;;;;;82.47;58.73;;;;;;;3.64;96.23;103045.84;5050491;28;20545;-49
2022/03/24 05:08:52;;;;;;;92.03;61.67;;;;;;;3.65;96.45;103043.09;5050892;28;20472;-48
2022/03/24 05:11:19;;;;;;;80.73;58.53;;;;;;;3.66;95.70;103049.22;5050632;28;20459;-47
2022/03/24 05:13:48;;;;;;;80.87;59.20;;;;;;;3.67;96.21;103043.88;5053515;28;21072;-47
2022/03/24 05:16:17;;;;;;;84.23;57.10;;;;;;;3.67;96.23;103030.69;5054335;28;20466;-49
2022/03/24 05:18:45;;;;;;;85.63;60.73;;;;;;;3.69;96.05;103038.50;5054716;28;20430;-51
2022/03/24 05:21:13;;;;;;;86.70;62.13;;;;;;;3.73;96.53;103034.72;5054259;28;20981;-48
2022/03/24 05:23:41;;;;;;;91.83;60.60;;;;;;;3.75;96.10;103028.41;5054522;28;20470;-49
2022/03/24 05:26:09;;;;;;;77.30;56.20;;;;;;;3.80;96.53;103031.59;5053904;28;20534;-49
2022/03/24 05:28:36;;;;;;;71.20;54.50;;;;;;;3.84;96.24;103034.88;5054324;28;20477;-52
2022/03/24 05:31:05;;;;;;;71.67;54.63;;;;;;;3.90;96.31;103029.22;5054247;28;20549;-47
2022/03/24 05:33:33;;;;;;;88.90;59.07;;;;;;;3.95;96.25;103023.63;5054371;28;20449;-50
2022/03/24 05:36:01;;;;;;;64.00;51.90;;;;;;;3.98;96.42;103031.34;5053920;28;20518;-46
2022/03/24 05:38:28;;;;;;;77.73;54.37;;;;;;;4.04;96.03;103031.81;5054240;28;20431;-48
2022/03/24 05:40:57;;;;;;;73.23;54.80;;;;;;;4.08;96.20;103024.53;5054152;28;20560;-48
2022/03/24 05:43:25;;;;;;;70.63;54.43;;;;;;;4.15;96.55;103031.13;5054313;28;20526;-49
2022/03/24 05:45:53;;;;;;;80.53;57.00;;;;;;;4.22;96.68;103027.13;5047335;28;20874;-47
2022/03/24 05:48:22;;;;;;;72.33;54.50;;;;;;;4.30;96.30;103035.44;5054067;28;20537;-49
2022/03/24 05:50:50;;;;;;;69.20;52.50;;;;;;;4.39;96.41;103032.19;5053679;28;20458;-48
2022/03/24 05:53:18;;;;;;;83.20;56.77;;;;;;;4.48;96.54;103035.03;5053893;28;20443;-47
2022/03/24 05:55:45;;;;;;;79.43;59.57;;;;;;;4.60;96.60;103032.56;5053965;28;20430;-47
2022/03/24 05:58:17;;;;;;;79.13;58.93;;;;;;;4.67;96.10;103039.97;5053782;28;20478;-52
2022/03/24 06:00:45;;;;;;;79.77;55.90;;;;;;;4.73;96.07;103036.06;5053395;28;20494;-49
2022/03/24 06:03:14;;;;;;;62.77;52.57;;;;;;;4.79;95.54;103044.41;5053741;28;20946;-47
2022/03/24 06:05:46;;;;;;;70.03;54.90;;;;;;;4.86;95.62;103035.13;5053560;28;20462;-48
2022/03/24 06:08:14;;;;;;;66.60;54.73;;;;;;;4.97;95.45;103024.66;5053456;28;20471;-47
2022/03/24 06:10:41;;;;;;;83.67;58.40;;;;;;;5.09;95.26;103032.72;5053643;28;20537;-48
2022/03/24 06:13:09;;;;;;;63.23;53.23;;;;;;;5.23;95.13;103043.16;5053818;28;20435;-52
2022/03/24 06:15:36;;;;;;;89.17;59.50;;;;;;;5.27;94.58;103048.16;5053649;28;20435;-50
2022/03/24 06:18:04;;;;;;;79.37;58.97;;;;;;;5.39;94.64;103046.47;5052931;28;20491;-51
2022/03/24 06:20:32;;;;;;;72.13;55.60;;;;;;;5.54;94.47;103050.69;5053539;28;20451;-48
2022/03/24 06:23:02;;;;;;;67.33;51.33;;;;;;;5.70;94.60;103056.59;5053672;28;20442;-47
2022/03/24 06:25:29;;;;;;;70.03;53.60;;;;;;;5.81;94.19;103047.88;5052311;28;20459;-52
2022/03/24 06:27:57;;;;;;;75.13;55.80;;;;;;;5.89;93.23;103049.06;5052706;28;20471;-51
2022/03/24 06:30:25;;;;;;;72.20;55.20;;;;;;;5.97;92.83;103049.34;5052954;28;20525;-49
2022/03/24 06:32:53;;;;;;;81.50;56.07;;;;;;;5.94;90.83;103048.72;5053254;28;20516;-52
2022/03/24 06:35:21;;;;;;;71.57;56.20;;;;;;;6.03;91.12;103056.03;5053476;28;20457;-47
2022/03/24 06:37:50;;;;;;;73.00;57.47;;;;;;;6.18;90.97;103046.13;5052585;28;20833;-46
2022/03/24 06:40:20;;;;;;;75.03;56.63;;;;;;;6.33;91.09;103058.25;5052875;28;20534;-51
2022/03/24 06:42:49;;;;;;;77.70;55.90;;;;;;;6.31;88.19;103057.47;5053302;28;20542;-48
2022/03/24 06:45:17;;;;;;;69.40;55.00;;;;;;;6.50;88.52;103055.19;5052859;28;20430;-46
2022/03/24 06:47:45;;;;;;;63.07;52.17;;;;;;;6.71;88.56;103050.06;5052285;28;20978;-51
2022/03/24 06:50:13;;;;;;;63.83;53.90;;;;;;;6.93;89.29;103050.97;5052814;28;20431;-44
2022/03/24 06:52:42;;;;;;;66.33;55.07;;;;;;;7.15;89.43;103056.34;5052813;28;20535;-49
2022/03/24 06:55:12;;;;;;;63.93;54.47;;;;;;;7.32;88.27;103059.50;5052871;28;20423;-52
2022/03/24 06:57:42;;;;;;;64.00;52.00;;;;;;;7.55;88.78;103055.91;5052327;28;20554;-47
2022/03/24 07:00:13;;;;;;;72.43;58.97;;;;;;;7.79;87.47;103054.78;5052822;28;20513;-47
2022/03/24 07:02:41;;;;;;;70.10;56.07;;;;;;;8.02;87.98;103065.38;5052922;28;21005;-50
2022/03/24 07:05:09;;;;;;;75.37;60.07;;;;;;;8.21;87.16;103060.28;5052792;28;20523;-50
2022/03/24 07:07:36;;;;;;;62.03;51.30;;;;;;;8.45;86.03;103062.78;5052120;28;20470;-48
2022/03/24 07:10:05;;;;;;;66.73;54.07;;;;;;;8.85;85.55;103061.13;5052315;28;20475;-51
2022/03/24 07:12:34;;;;;;;59.63;49.83;;;;;;;9.06;83.55;103054.00;5052472;28;20457;-48
2022/03/24 07:15:03;;;;;;;57.60;51.27;;;;;;;9.41;82.18;103051.81;5052460;28;20527;-46
2022/03/24 07:17:31;;;;;;;67.27;56.83;;;;;;;9.54;78.87;103046.25;5052121;28;20455;-46
2022/03/24 07:19:59;;;;;;;61.00;53.20;;;;;;;9.65;76.06;103043.50;5052387;28;21017;-46
2022/03/24 07:22:32;;;;;;;61.40;53.03;;;;;;;9.72;74.79;103051.81;5052221;28;20825;-46
2022/03/24 07:25:00;;;;;;;66.47;52.27;;;;;;;9.72;73.85;103049.97;5052236;28;20454;-51
2022/03/24 07:27:27;;;;;;;61.57;52.20;;;;;;;9.76;73.30;103046.09;5051862;28;20466;-47
2022/03/24 07:30:00;;;;;;;68.70;57.50;;;;;;;9.76;70.84;103045.22;5052166;28;20498;-48
2022/03/24 07:32:30;;;;;;;61.80;53.53;;;;;;;9.79;70.65;103047.63;5051833;28;20550;-49
2022/03/24 07:34:57;;;;;;;70.70;54.10;;;;;;;9.77;67.79;103041.56;5052053;28;20750;-50
2022/03/24 07:37:25;;;;;;;66.53;55.23;;;;;;;9.85;69.19;103050.59;5051364;28;20463;-52
2022/03/24 07:39:52;;;;;;;61.20;51.67;;;;;;;9.97;69.63;103051.31;5052052;28;20474;-47
2022/03/24 07:42:20;;;;;;;62.17;49.27;;;;;;;10.13;70.31;103054.31;5051776;28;20551;-48
2022/03/24 07:44:48;;;;;;;71.63;52.43;;;;;;;10.28;69.46;103055.63;5046095;28;20523;-48
2022/03/24 07:47:16;;;;;;;59.70;52.50;;;;;;;10.38;69.05;103056.47;5051237;28;20469;-49
2022/03/24 07:49:46;;;;;;;69.47;55.23;;;;;;;10.53;67.92;103055.09;5051667;28;20573;-47
2022/03/24 07:52:15;;;;;;;57.70;50.70;;;;;;;10.64;67.56;103061.25;5051849;28;20455;-50
2022/03/24 07:54:57;;;;;;;62.77;52.80;;;;;;;10.78;66.64;103052.84;5051879;28;20530;-47
2022/03/24 07:57:26;;;;;;;67.30;51.53;;;;;;;10.87;66.09;103057.31;5051410;28;20455;-49
2022/03/24 07:59:54;;;;;;;61.40;50.90;;;;;;;10.94;65.97;103047.72;5051653;28;20865;-46
2022/03/24 08:02:21;;;;;;;57.73;51.50;;;;;;;11.17;66.09;103053.63;5051241;28;20487;-48
2022/03/24 08:04:52;;;;;;;62.73;50.53;;;;;;;11.25;64.90;103045.72;5051785;28;20427;-49
2022/03/24 08:07:20;;;;;;;56.40;48.23;;;;;;;11.39;64.47;103056.75;5051207;28;20483;-50
2022/03/24 08:09:48;;;;;;;57.07;47.37;;;;;;;11.65;64.10;103048.91;5051565;28;20566;-46
2022/03/24 08:12:16;;;;;;;59.53;48.60;;;;;;;11.77;61.68;103047.78;5051403;28;21001;-46
2022/03/24 08:14:44;;;;;;;59.73;45.07;;;;;;;11.84;61.52;103051.53;5051551;28;20462;-50
2022/03/24 08:17:11;;;;;;;56.30;46.60;;;;;;;11.91;60.20;103043.78;5051187;28;20462;-51
2022/03/24 08:19:39;;;;;;;53.97;45.23;;;;;;;12.08;60.95;103056.34;5051710;28;20433;-49
2022/03/24 08:22:08;;;;;;;57.80;47.80;;;;;;;12.10;59.11;103054.34;5051349;28;20543;-48
2022/03/24 08:24:36;;;;;;;62.90;48.10;;;;;;;12.15;58.60;103057.41;5051466;28;20443;-47
2022/03/24 08:27:04;;;;;;;61.20;48.00;;;;;;;12.31;59.14;103054.91;5051067;28;20597;-47
2022/03/24 08:29:31;;;;;;;62.90;46.97;;;;;;;12.49;58.88;103061.09;5051278;28;20985;-45
2022/03/24 08:31:59;;;;;;;59.63;45.63;;;;;;;12.59;56.42;103055.69;5051027;28;20485;-50
2022/03/24 08:34:28;;;;;;;59.97;46.23;;;;;;;12.70;56.82;103052.75;5051490;28;20428;-47
2022/03/24 08:36:56;;;;;;;49.33;41.30;;;;;;;12.75;55.36;103053.97;5050978;28;21064;-48
2022/03/24 08:39:25;;;;;;;51.23;44.20;;;;;;;12.96;56.98;103061.66;5051406;28;20423;-48
2022/03/24 08:41:54;;;;;;;55.30;46.30;;;;;;;13.06;57.16;103064.25;5051168;28;20463;-53
2022/03/24 08:44:21;;;;;;;61.10;46.80;;;;;;;13.25;57.02;103059.59;5051612;28;20438;-51
2022/03/24 08:46:49;;;;;;;61.27;45.83;;;;;;;13.47;55.97;103060.84;5051037;28;20535;-50
2022/03/24 08:49:18;;;;;;;52.60;42.30;;;;;;;13.58;55.50;103065.13;5034989;28;20483;-52
2022/03/24 08:51:46;;;;;;;53.03;44.60;;;;;;;13.93;55.25;103059.56;5035411;28;20547;-52
2022/03/24 08:54:14;;;;;;;58.27;46.27;;;;;;;14.20;55.04;103067.38;5035551;28;20864;-48
2022/03/24 08:56:43;;;;;;;65.07;46.97;;;;;;;14.45;55.01;103065.63;5034844;28;20539;-50
2022/03/24 08:59:11;;;;;;;61.30;47.57;;;;;;;14.70;54.51;103067.28;5035525;28;20435;-47
2022/03/24 09:01:41;;;;;;;64.17;49.77;;;;;;;14.58;53.77;103065.94;5035006;28;21022;-46
2022/03/24 09:04:10;;;;;;;57.33;47.70;;;;;;;14.30;51.43;103067.22;5035403;28;20486;-46
2022/03/24 09:06:38;;;;;;;63.43;48.30;;;;;;;14.54;53.67;103067.31;5034772;28;20830;-51
2022/03/24 09:09:06;;;;;;;57.50;47.00;;;;;;;14.46;51.74;103067.28;5034883;28;20460;-49
2022/03/24 09:11:34;;;;;;;54.77;48.67;;;;;;;13.91;51.96;103061.59;5035119;28;20542;-46
2022/03/24 09:14:03;;;;;;;61.10;48.10;;;;;;;13.96;53.43;103061.91;5035076;28;20806;-52
2022/03/24 09:16:31;;;;;;;56.80;44.60;;;;;;;14.06;53.97;103059.97;5034395;28;21034;-49
2022/03/24 09:18:59;;;;;;;55.97;43.17;;;;;;;14.32;54.46;103065.22;5034818;28;20526;-48
2022/03/24 09:21:27;;;;;;;60.43;45.23;;;;;;;14.56;53.33;103065.28;5034590;28;20919;-49
2022/03/24 09:23:55;;;;;;;57.20;42.37;;;;;;;14.68;51.13;103061.25;5034957;28;20443;-47
2022/03/24 09:26:23;;;;;;;53.53;40.50;;;;;;;14.94;51.23;103061.06;5034241;28;20535;-49
2022/03/24 09:29:01;;;;;;;53.90;41.60;;;;;;;15.13;50.07;103059.88;5034708;28;20526;-50
2022/03/24 09:31:30;;;;;;;52.37;40.43;;;;;;;15.10;47.90;103060.22;5038897;28;20470;-49
2022/03/24 09:33:58;;;;;;;56.53;38.37;;;;;;;15.31;49.92;103057.84;5054192;28;20511;-50
2022/03/24 09:36:25;;;;;;;47.10;38.97;;;;;;;15.48;48.53;103049.59;5079557;22;20533;-42
2022/03/24 09:38:53;;;;;;;51.30;38.40;;;;;;;15.62;47.95;103055.28;5054422;28;20870;-42
2022/03/24 09:41:21;;;;;;;49.70;38.67;;;;;;;15.82;48.21;103062.75;5054218;28;20431;-42
2022/03/24 09:43:49;;;;;;;55.03;39.87;;;;;;;15.90;47.46;103057.31;5054321;28;20530;-41
2022/03/24 09:46:19;;;;;;;50.50;38.90;;;;;;;16.05;46.26;103060.94;5049773;28;20456;-42
2022/03/24 09:48:48;;;;;;;56.20;42.30;;;;;;;16.15;46.53;103060.72;5049987;28;20463;-42
2022/03/24 09:51:16;;;;;;;44.83;37.60;;;;;;;16.31;46.95;103065.16;5053880;28;20479;-41
2022/03/24 09:53:44;;;;;;;52.07;40.23;;;;;;;16.33;45.01;103063.16;5054117;28;20462;-41
2022/03/24 09:56:12;;;;;;;54.50;42.93;;;;;;;16.35;45.54;103061.09;5053567;28;20469;-41
2022/03/24 09:58:42;;;;;;;48.73;39.63;;;;;;;16.47;46.02;103056.97;5053708;28;20435;-42
2022/03/24 10:01:17;;;;;;;45.83;37.97;;;;;;;16.54;44.98;103055.28;5053726;28;20485;-41
2022/03/24 10:04:06;;;;;;;48.97;39.37;;;;;;;16.64;42.46;103047.78;5053970;28;20459;-41
2022/03/24 10:06:34;;;;;;;52.43;37.90;;;;;;;16.71;45.66;103054.13;5053350;28;20470;-41
2022/03/24 10:09:02;;;;;;;49.50;39.17;;;;;;;16.81;45.24;103053.88;5053791;28;20445;-42
2022/03/24 10:11:30;;;;;;;43.67;37.40;;;;;;;16.89;42.83;103046.56;5053444;28;20477;-42
2022/03/24 10:13:59;;;;;;;48.03;36.40;;;;;;;16.91;42.90;103055.28;5053531;28;20441;-45
2022/03/24 10:16:43;;;;;;;45.70;35.30;;;;;;;17.00;40.94;103053.34;5052978;28;20466;-42
2022/03/24 10:19:17;;;;;;;44.33;37.03;;;;;;;16.96;42.25;103062.84;5053669;28;20942;-44
2022/03/24 10:21:47;;;;;;;43.70;33.17;;;;;;;17.14;42.33;103053.38;5053375;28;20431;-41
2022/03/24 10:24:17;;;;;;;40.83;34.00;;;;;;;17.32;42.05;103060.31;5053720;28;20415;-45
2022/03/24 10:26:47;;;;;;;51.70;37.23;;;;;;;17.32;41.84;103055.75;5052830;28;21018;-43
2022/03/24 10:29:18;;;;;;;47.03;37.40;;;;;;;17.37;41.71;103050.63;5053463;28;20461;-41
2022/03/24 10:31:52;;;;;;;46.70;36.73;;;;;;;17.45;41.28;103050.53;5053180;28;20520;-41
2022/03/24 10:34:28;;;;;;;46.87;36.23;;;;;;;17.39;40.62;103048.56;5053141;28;20439;-43
2022/03/24 10:36:56;;;;;;;47.00;34.87;;;;;;;17.44;41.86;103040.75;5052548;28;20557;-42
2022/03/24 10:39:25;;;;;;;48.70;36.90;;;;;;;17.44;39.49;103039.94;5053466;28;20834;-41
2022/03/24 10:41:53;;;;;;;43.77;34.87;;;;;;;17.38;40.80;103037.97;5052987;28;20435;-43
2022/03/24 10:44:21;;;;;;;44.33;31.80;;;;;;;17.34;39.69;103039.38;5053378;28;20461;-42
2022/03/24 10:46:49;;;;;;;48.37;35.30;;;;;;;17.30;39.65;103032.66;5043962;28;20811;-43
2022/03/24 10:49:20;;;;;;;47.30;36.17;;;;;;;17.38;40.19;103036.09;5033142;28;20460;-43
2022/03/24 10:51:54;;;;;;;41.20;33.20;;;;;;;17.32;40.76;103036.88;5032956;28;20522;-43
2022/03/24 10:54:28;;;;;;;39.23;31.93;;;;;;;17.42;39.07;103026.63;5033023;28;20490;-41
2022/03/24 10:57:05;;;;;;;41.40;33.87;;;;;;;17.60;40.00;103028.97;5032403;28;20542;-43
2022/03/24 10:59:36;;;;;;;46.50;35.90;;;;;;;17.71;41.07;103031.22;5033052;28;20412;-42
2022/03/24 11:02:05;;;;;;;40.03;34.00;;;;;;;17.64;39.57;103028.41;5032798;28;20440;-42
2022/03/24 11:04:33;;;;;;;49.43;34.80;;;;;;;17.50;39.54;103033.81;5032935;28;20490;-41
2022/03/24 11:07:02;;;;;;;40.60;31.17;;;;;;;17.61;40.33;103034.19;5032177;28;20464;-43
2022/03/24 11:09:31;;;;;;;35.07;30.13;;;;;;;17.78;39.28;103026.72;5033127;28;20877;-42
2022/03/24 11:12:23;;;;;;;38.27;30.53;;;;;;;17.83;38.49;103023.47;5031638;28;20482;-42
2022/03/24 11:14:54;;;;;;;39.97;33.57;;;;;;;17.90;38.64;103027.06;5033006;28;20443;-42
2022/03/24 11:17:24;;;;;;;48.53;35.40;;;;;;;17.94;39.96;103025.66;5032345;28;20470;-44
2022/03/24 11:20:04;;;;;;;46.43;35.67;;;;;;;18.04;38.64;103032.41;5032836;28;20529;-44
2022/03/24 11:22:41;;;;;;;41.37;34.70;;;;;;;17.68;38.77;103028.88;5032691;28;20422;-42